^^
Station Historical Data
 
Daily Summary for December 12, 2017 Units:  English    Metric   Both
« Previous Day
Next Day »
Daily Weekly Monthly Yearly Custom
  Current: High: Low: Average:
Temperature: 45.1 °F 45.2 °F 34.1 °F 38 °F
Dew Point: 41.2 °F 41.5 °F 25.3 °F 32.8 °F
Humidity: 86% 92% 69% 82%
Wind Speed: 1.0mph 1.0mph 0.0mph 0.3mph
Wind Gust: 3.0mph 7.0mph - -
WindSSW - - ESE
Pressure: 29.56 in 29.96 in 29.56 in -
Precipitation: 0.06 in      
Historical Graphs
 
 
Tabular Data for December 12, 2017
Time Temperature Dew Point Pressure Wind Wind Speed Wind Gust Humidity Rainfall Rate (Hourly) Conditions
00:00 34.2 °F 25.4 °F 29.96 in Calm     70% 0.00 in BKN
00:10 34.1 °F 25.3 °F 29.95 in Calm   1.0 mph 70% 0.00 in OVC
00:20 34.4 °F 25.3 °F 29.94 in Calm   1.0 mph 69% 0.00 in OVC
00:30 34.5 °F 25.4 °F 29.94 in Calm   1.0 mph 69% 0.00 in OVC
00:40 34.7 °F 25.6 °F 29.93 in Calm   2.0 mph 69% 0.00 in OVC
00:50 34.8 °F 26.0 °F 29.93 in Calm   1.0 mph 70% 0.00 in OVC
01:10 34.8 °F 26.7 °F 29.92 in Calm   1.0 mph 72% 0.00 in BKN
01:20 34.7 °F 26.6 °F 29.91 in NNE 1.0 mph 2.0 mph 72% 0.00 in BKN
01:30 34.8 °F 27.0 °F 29.91 in Calm   2.0 mph 73% 0.00 in BKN
01:40 34.8 °F 27.0 °F 29.91 in Calm   2.0 mph 73% 0.00 in BKN
01:50 34.7 °F 27.2 °F 29.91 in Calm   2.0 mph 74% 0.00 in BKN
02:00 34.6 °F 27.5 °F 29.90 in Calm   1.0 mph 75% 0.00 in BKN
02:10 34.8 °F 27.7 °F 29.89 in Calm   1.0 mph 75% 0.00 in BKN
02:20 34.7 °F 27.6 °F 29.88 in Calm   3.0 mph 75% 0.00 in BKN
02:30 34.8 °F 27.7 °F 29.88 in Calm   4.0 mph 75% 0.00 in BKN
02:40 34.5 °F 27.8 °F 29.87 in Calm   1.0 mph 76% 0.00 in BKN
02:50 34.6 °F 27.8 °F 29.87 in North 1.0 mph 2.0 mph 76% 0.00 in BKN
03:00 34.9 °F 28.1 °F 29.86 in Calm   2.0 mph 76% 0.00 in BKN
03:10 35.1 °F 28.7 °F 29.86 in Calm   2.0 mph 77% 0.00 in BKN
03:20 35.2 °F 28.7 °F 29.85 in Calm   2.0 mph 77% 0.00 in BKN
03:30 35.3 °F 28.8 °F 29.84 in Calm   2.0 mph 77% 0.00 in BKN
03:40 35.2 °F 29.0 °F 29.83 in Calm   1.0 mph 78% 0.00 in BKN
03:50 35.2 °F 29.0 °F 29.82 in Calm   2.0 mph 78% 0.00 in BKN
04:00 35.5 °F 29.6 °F 29.82 in NE 1.0 mph 2.0 mph 79% 0.00 in BKN
04:10 35.7 °F 29.8 °F 29.81 in Calm   2.0 mph 79% 0.00 in BKN
04:20 35.9 °F 30.0 °F 29.80 in Calm   2.0 mph 79% 0.00 in BKN
04:30 36.0 °F 30.5 °F 29.79 in Calm   2.0 mph 80% 0.00 in BKN
04:40 36.2 °F 30.6 °F 29.79 in Calm   3.0 mph 80% 0.00 in BKN
04:50 36.3 °F 31.0 °F 29.78 in ENE 1.0 mph 3.0 mph 81% 0.00 in BKN
05:00 36.5 °F 31.2 °F 29.77 in Calm   3.0 mph 81% 0.00 in BKN
05:10 36.8 °F 31.8 °F 29.76 in Calm   2.0 mph 82% 0.00 in BKN
05:20 36.8 °F 31.8 °F 29.75 in Calm   2.0 mph 82% 0.00 in BKN
05:30 37.0 °F 32.3 °F 29.76 in Calm   3.0 mph 83% 0.00 in BKN
05:40 37.4 °F 32.7 °F 29.75 in NE 1.0 mph 4.0 mph 83% 0.00 in BKN
05:50 37.6 °F 32.9 °F 29.75 in Calm   2.0 mph 83% 0.00 in BKN
06:00 37.8 °F 33.1 °F 29.74 in Calm   2.0 mph 83% 0.00 in BKN
06:10 38.0 °F 33.6 °F 29.73 in Calm   2.0 mph 84% 0.00 in -DZ
06:20 38.0 °F 33.6 °F 29.73 in Calm   2.0 mph 84% 0.00 in -DZ
06:30 38.2 °F 34.1 °F 29.72 in NNE 1.0 mph 3.0 mph 85% 0.00 in -DZ
06:40 38.5 °F 34.7 °F 29.71 in North 1.0 mph 3.0 mph 86% 0.00 in -DZ
06:50 38.4 °F 34.6 °F 29.70 in NE 1.0 mph 3.0 mph 86% 0.00 in -DZ
07:00 38.5 °F 34.7 °F 29.69 in North 1.0 mph 2.0 mph 86% 0.00 in -DZ
07:10 38.8 °F 35.2 °F 29.69 in Calm   2.0 mph 87% 0.00 in -RA
07:20 39.1 °F 35.6 °F 29.68 in Calm   3.0 mph 87% 0.00 in -RA
07:30 39.7 °F 36.4 °F 29.68 in Calm   3.0 mph 88% 0.00 in -RA
07:40 39.7 °F 36.7 °F 29.68 in East 1.0 mph 3.0 mph 89% 0.01 in -RA
07:50 40.1 °F 37.1 °F 29.67 in NNE 1.0 mph 4.0 mph 89% 0.00 in -RA
08:00 40.2 °F 37.5 °F 29.66 in Calm   4.0 mph 90% 0.01 in -RA
08:10 40.6 °F 38.2 °F 29.66 in Calm   1.0 mph 91% 0.02 in -RA
08:20 40.9 °F 38.7 °F 29.66 in Calm   2.0 mph 92% 0.01 in -RA
08:30 41.3 °F 39.2 °F 29.65 in Calm   2.0 mph 92% 0.00 in -RA
08:40 41.5 °F 39.3 °F 29.65 in Calm   1.0 mph 92% 0.00 in -RA
08:50 41.6 °F 39.4 °F 29.64 in Calm   1.0 mph 92% 0.00 in -RA
09:00 42.6 °F 40.4 °F 29.63 in South 1.0 mph 7.0 mph 92% 0.00 in -RA
09:10 43.3 °F 40.6 °F 29.63 in SSE 1.0 mph 6.0 mph 90% 0.00 in -RA
09:20 43.3 °F 40.2 °F 29.62 in Calm   2.0 mph 89% 0.00 in -RA
09:30 43.0 °F 40.3 °F 29.62 in Calm   1.0 mph 90% 0.00 in -RA
09:40 43.4 °F 40.6 °F 29.61 in ESE 1.0 mph 4.0 mph 90% 0.00 in -RA
09:50 43.7 °F 41.0 °F 29.60 in SW 1.0 mph 3.0 mph 90% 0.00 in -RA
10:00 44.3 °F 41.3 °F 29.59 in Calm   3.0 mph 89% 0.00 in -RA
10:10 44.9 °F 41.5 °F 29.58 in Calm   5.0 mph 88% 0.00 in -RA
10:20 45.1 °F 41.5 °F 29.58 in SSE 1.0 mph 4.0 mph 87% 0.00 in -RA
10:30 45.2 °F 41.3 °F 29.57 in Calm   5.0 mph 86% 0.00 in -RA
10:40 45.1 °F 41.2 °F 29.56 in SSW 1.0 mph 3.0 mph 86% 0.01 in -RA
TarryTown NY Weather
Compliments of Weather Underground - 1.25 mb